createdAt,value
2023-01-07T00:00:05.810Z,16.13
2023-01-07T00:02:41.675Z,15.53
2023-01-07T00:05:10.867Z,14.33
2023-01-07T00:07:39.204Z,14.37
2023-01-07T00:10:07.934Z,16.23
2023-01-07T00:12:36.168Z,15.00
2023-01-07T00:15:04.560Z,14.33
2023-01-07T00:17:32.857Z,14.83
2023-01-07T00:20:02.450Z,16.57
2023-01-07T00:22:30.852Z,16.83
2023-01-07T00:24:59.179Z,17.00
2023-01-07T00:27:27.802Z,16.80
2023-01-07T00:29:56.219Z,16.10
2023-01-07T00:32:44.944Z,15.00
2023-01-07T00:35:23.362Z,16.43
2023-01-07T00:37:53.281Z,15.93
2023-01-07T00:40:22.155Z,15.90
2023-01-07T00:43:01.482Z,16.13
2023-01-07T00:45:32.137Z,16.13
2023-01-07T00:48:01.210Z,15.40
2023-01-07T00:50:32.792Z,14.97
2023-01-07T00:53:01.309Z,15.27
2023-01-07T00:55:29.754Z,14.90
2023-01-07T00:57:58.443Z,15.90
2023-01-07T01:00:28.162Z,15.23
2023-01-07T01:02:57.709Z,14.70
2023-01-07T01:05:26.240Z,15.07
2023-01-07T01:07:56.201Z,14.87
2023-01-07T01:10:24.514Z,16.00
2023-01-07T01:12:52.860Z,19.73
2023-01-07T01:15:21.446Z,21.90
2023-01-07T01:17:52.763Z,22.57
2023-01-07T01:20:21.672Z,20.93
2023-01-07T01:22:50.338Z,23.20
2023-01-07T01:25:20.162Z,20.83
2023-01-07T01:27:48.479Z,23.67
2023-01-07T01:30:17.488Z,20.10
2023-01-07T01:32:46.049Z,20.03
2023-01-07T01:35:15.702Z,20.93
2023-01-07T01:37:44.645Z,19.40
2023-01-07T01:40:13.720Z,19.87
2023-01-07T01:42:43.366Z,19.90
2023-01-07T01:45:16.390Z,21.37
2023-01-07T01:47:49.208Z,18.67
2023-01-07T01:50:23.636Z,18.97
2023-01-07T01:52:58.085Z,16.77
2023-01-07T01:55:31.976Z,15.73
2023-01-07T01:58:07.154Z,16.10
2023-01-07T02:00:36.304Z,15.37
2023-01-07T02:03:09.546Z,17.57
2023-01-07T02:05:41.358Z,16.23
2023-01-07T02:08:11.310Z,15.93
2023-01-07T02:10:41.126Z,15.50
2023-01-07T02:13:32.819Z,14.87
2023-01-07T02:16:11.082Z,16.20
2023-01-07T02:18:53.964Z,14.13
2023-01-07T02:21:35.975Z,15.83
2023-01-07T02:24:47.681Z,14.97
2023-01-07T02:27:43.610Z,14.53
2023-01-07T02:31:07.811Z,15.57
2023-01-07T02:33:50.609Z,15.03
2023-01-07T02:36:34.401Z,16.47
2023-01-07T02:39:26.258Z,15.10
2023-01-07T02:41:59.798Z,15.43
2023-01-07T02:44:39.327Z,15.97
2023-01-07T02:47:14.728Z,15.87
2023-01-07T02:49:44.431Z,15.70
2023-01-07T02:52:20.068Z,15.37
2023-01-07T02:54:52.704Z,15.37
2023-01-07T02:57:45.501Z,14.57
2023-01-07T03:00:27.191Z,14.70
2023-01-07T03:03:25.816Z,13.90
2023-01-07T03:06:06.877Z,14.33
2023-01-07T03:08:47.082Z,14.97
2023-01-07T03:11:19.890Z,14.60
2023-01-07T03:13:54.810Z,14.17
2023-01-07T03:16:30.690Z,14.67
2023-01-07T03:19:04.059Z,13.87
2023-01-07T03:21:36.113Z,17.43
2023-01-07T03:24:06.738Z,16.57
2023-01-07T03:26:40.331Z,15.57
2023-01-07T03:29:11.351Z,15.73
2023-01-07T03:31:44.505Z,17.47
2023-01-07T03:34:17.600Z,16.20
2023-01-07T03:36:57.261Z,16.73
2023-01-07T03:39:30.593Z,17.80
2023-01-07T03:42:17.069Z,16.40
2023-01-07T03:44:45.540Z,17.23
2023-01-07T03:47:15.315Z,17.20
2023-01-07T03:49:43.607Z,15.57
2023-01-07T03:52:13.350Z,14.90
2023-01-07T03:54:42.340Z,15.77
2023-01-07T03:57:10.800Z,15.33
2023-01-07T03:59:39.188Z,15.83
2023-01-07T04:02:08.007Z,16.23
2023-01-07T04:04:37.071Z,16.83
2023-01-07T04:07:05.653Z,17.57
2023-01-07T04:09:35.338Z,18.03
2023-01-07T04:12:03.907Z,17.50
2023-01-07T04:14:33.179Z,17.73
2023-01-07T04:17:01.769Z,17.90
2023-01-07T04:19:30.060Z,17.97
2023-01-07T04:21:59.676Z,19.50
2023-01-07T04:24:28.306Z,19.17
2023-01-07T04:26:58.040Z,17.47
2023-01-07T04:29:27.221Z,18.57
2023-01-07T04:31:55.668Z,18.87
2023-01-07T04:34:24.560Z,18.40
2023-01-07T04:36:53.364Z,17.30
2023-01-07T04:39:22.082Z,17.83
2023-01-07T04:41:50.525Z,18.07
2023-01-07T04:44:20.808Z,17.97
2023-01-07T04:46:49.257Z,19.17
2023-01-07T04:49:20.404Z,18.67
2023-01-07T04:51:49.572Z,17.63
2023-01-07T04:54:19.050Z,17.40
2023-01-07T04:56:47.449Z,18.40
2023-01-07T04:59:16.332Z,17.60
2023-01-07T05:01:46.619Z,18.90
2023-01-07T05:04:15.114Z,18.17
2023-01-07T05:06:44.364Z,19.23
2023-01-07T05:09:14.018Z,19.97
2023-01-07T05:11:42.465Z,20.60
2023-01-07T05:14:13.263Z,20.00
2023-01-07T05:16:42.289Z,20.40
2023-01-07T05:19:14.102Z,20.87
2023-01-07T05:21:47.770Z,20.37
2023-01-07T05:24:16.982Z,21.17
2023-01-07T05:26:46.944Z,20.67
2023-01-07T05:29:17.800Z,20.30
2023-01-07T05:31:47.883Z,19.93
2023-01-07T05:34:18.043Z,18.93
2023-01-07T05:36:47.187Z,18.60
2023-01-07T05:39:15.809Z,19.37
2023-01-07T05:41:44.237Z,19.87
2023-01-07T05:44:13.018Z,18.30
2023-01-07T05:46:41.740Z,18.13
2023-01-07T05:49:10.013Z,17.63
2023-01-07T05:51:39.702Z,18.20
2023-01-07T05:54:08.928Z,16.50
2023-01-07T05:56:37.329Z,18.60
2023-01-07T05:59:05.744Z,18.70
2023-01-07T06:01:34.235Z,20.80
2023-01-07T06:04:02.654Z,21.90
2023-01-07T06:06:31.045Z,18.83
2023-01-07T06:09:00.591Z,32.17
2023-01-07T06:11:28.984Z,22.87
2023-01-07T06:13:57.381Z,21.43
2023-01-07T06:16:25.733Z,20.83
2023-01-07T06:18:54.044Z,19.60
2023-01-07T06:21:22.364Z,19.53
2023-01-07T06:23:50.910Z,19.47
2023-01-07T06:26:20.833Z,19.67
2023-01-07T06:28:49.147Z,19.10
2023-01-07T06:31:17.490Z,21.53
2023-01-07T06:33:45.997Z,27.87
2023-01-07T06:36:14.348Z,23.43
2023-01-07T06:38:42.728Z,20.90
2023-01-07T06:41:11.016Z,20.50
2023-01-07T06:43:40.787Z,20.30
2023-01-07T06:46:09.445Z,18.93
2023-01-07T06:48:37.777Z,27.87
2023-01-07T06:51:06.236Z,24.83
2023-01-07T06:53:34.645Z,31.87
2023-01-07T06:56:03.048Z,28.47
2023-01-07T06:58:31.396Z,25.47
2023-01-07T07:01:04.973Z,25.00
2023-01-07T07:03:33.571Z,30.70
2023-01-07T07:06:03.079Z,24.80
2023-01-07T07:08:31.433Z,36.87
2023-01-07T07:10:59.827Z,25.97
2023-01-07T07:13:29.476Z,23.77
2023-01-07T07:15:57.841Z,21.67
2023-01-07T07:18:27.686Z,21.87
2023-01-07T07:20:56.079Z,19.70
2023-01-07T07:23:24.559Z,20.73
2023-01-07T07:25:52.922Z,19.67
2023-01-07T07:28:21.339Z,18.77
2023-01-07T07:30:49.912Z,16.83
2023-01-07T07:33:19.955Z,16.30
2023-01-07T07:35:49.868Z,16.13
2023-01-07T07:38:19.203Z,16.07
2023-01-07T07:40:47.587Z,20.67
2023-01-07T07:43:16.755Z,16.83
2023-01-07T07:45:45.277Z,21.00
2023-01-07T07:48:17.682Z,29.17
2023-01-07T07:50:46.159Z,33.57
2023-01-07T07:53:15.809Z,45.23
2023-01-07T07:55:44.113Z,33.17
2023-01-07T07:58:12.468Z,34.63
2023-01-07T08:00:41.176Z,30.97
2023-01-07T08:03:09.638Z,28.97
2023-01-07T08:05:41.273Z,34.70
2023-01-07T08:08:11.598Z,36.93
2023-01-07T08:10:41.660Z,24.97
2023-01-07T08:13:11.088Z,25.53
2023-01-07T08:15:39.693Z,24.07
2023-01-07T08:18:10.185Z,21.27
2023-01-07T08:20:39.229Z,19.07
2023-01-07T08:23:09.044Z,19.93
2023-01-07T08:25:37.448Z,18.50
2023-01-07T08:28:07.171Z,16.40
2023-01-07T08:30:35.826Z,15.90
2023-01-07T08:33:06.069Z,17.70
2023-01-07T08:35:34.727Z,20.17
2023-01-07T08:38:04.739Z,17.70
2023-01-07T08:40:33.618Z,16.07
2023-01-07T08:43:02.448Z,17.10
2023-01-07T08:45:32.321Z,17.10
2023-01-07T08:48:00.843Z,17.47
2023-01-07T08:50:31.190Z,15.63
2023-01-07T08:52:59.811Z,17.63
2023-01-07T08:55:28.370Z,17.07
2023-01-07T08:57:56.909Z,18.70
2023-01-07T09:00:25.580Z,16.30
2023-01-07T09:02:55.224Z,18.40
2023-01-07T09:05:24.598Z,16.90
2023-01-07T09:07:54.445Z,16.40
2023-01-07T09:10:22.986Z,16.30
2023-01-07T09:12:51.359Z,15.73
2023-01-07T09:15:19.783Z,18.73
2023-01-07T09:17:48.135Z,16.87
2023-01-07T09:20:17.812Z,16.07
2023-01-07T09:22:46.188Z,16.47
2023-01-07T09:25:15.244Z,16.73
2023-01-07T09:27:43.601Z,15.60
2023-01-07T09:30:12.559Z,14.70
2023-01-07T09:32:41.171Z,16.00
2023-01-07T09:35:10.122Z,14.83
2023-01-07T09:37:40.115Z,17.53
2023-01-07T09:40:16.244Z,17.80
2023-01-07T09:42:52.239Z,18.63
2023-01-07T09:45:24.848Z,17.43
2023-01-07T09:47:55.978Z,14.90
2023-01-07T09:50:35.179Z,14.93
2023-01-07T09:53:09.381Z,15.13
2023-01-07T09:56:10.962Z,15.97
2023-01-07T09:58:29.305Z,14.70
2023-01-07T10:01:04.055Z,13.57
2023-01-07T10:03:51.330Z,13.50
2023-01-07T10:06:42.016Z,13.53
2023-01-07T10:09:23.843Z,12.67
2023-01-07T10:12:03.203Z,12.47
2023-01-07T10:14:58.918Z,15.27
2023-01-07T10:17:38.528Z,14.47
2023-01-07T10:20:15.340Z,14.57
2023-01-07T10:22:52.060Z,15.07
2023-01-07T10:25:23.999Z,15.27
2023-01-07T10:27:55.791Z,15.03
2023-01-07T10:30:27.804Z,14.77
2023-01-07T10:33:02.522Z,13.90
2023-01-07T10:35:35.971Z,17.67
2023-01-07T10:38:06.401Z,17.83
2023-01-07T10:40:42.932Z,14.10
2023-01-07T10:43:36.031Z,13.20
2023-01-07T10:46:24.091Z,13.10
2023-01-07T10:49:17.252Z,12.67
2023-01-07T10:51:59.647Z,10.83
2023-01-07T10:54:46.789Z,15.33
2023-01-07T10:57:20.953Z,11.97
2023-01-07T10:59:51.210Z,12.13
2023-01-07T11:02:22.339Z,11.87
2023-01-07T11:04:50.930Z,12.87
2023-01-07T11:07:29.603Z,13.93
2023-01-07T11:10:01.735Z,15.97
2023-01-07T11:12:37.059Z,15.40
2023-01-07T11:15:10.039Z,17.07
2023-01-07T11:17:43.088Z,16.37
2023-01-07T11:20:12.524Z,14.53
2023-01-07T11:22:41.360Z,12.07
2023-01-07T11:25:29.238Z,12.47
2023-01-07T11:28:04.368Z,12.77
2023-01-07T11:30:34.490Z,12.80
2023-01-07T11:33:06.281Z,12.60
2023-01-07T11:35:34.988Z,12.13
2023-01-07T11:38:03.421Z,10.80
2023-01-07T11:40:33.971Z,11.33
2023-01-07T11:43:05.400Z,13.60
2023-01-07T11:45:36.431Z,14.40
2023-01-07T11:48:10.609Z,11.67
2023-01-07T11:50:41.199Z,13.40
2023-01-07T11:53:35.277Z,14.70
2023-01-07T11:56:06.425Z,13.50
2023-01-07T11:58:39.036Z,11.03
2023-01-07T12:01:15.889Z,10.80
2023-01-07T12:03:46.699Z,12.57
2023-01-07T12:06:20.131Z,11.30
2023-01-07T12:08:57.271Z,12.37
2023-01-07T12:11:32.290Z,11.13
2023-01-07T12:14:19.418Z,11.47
2023-01-07T12:16:50.591Z,10.70
2023-01-07T12:19:31.752Z,11.70
2023-01-07T12:22:12.762Z,11.80
2023-01-07T12:25:19.210Z,10.97
2023-01-07T12:27:59.546Z,11.23
2023-01-07T12:31:03.053Z,11.63
2023-01-07T12:33:47.886Z,10.17
2023-01-07T12:36:22.116Z,10.63
2023-01-07T12:38:53.412Z,11.40
2023-01-07T12:41:26.709Z,18.60
2023-01-07T12:44:02.500Z,14.10
2023-01-07T12:46:40.122Z,14.10
2023-01-07T12:49:14.219Z,28.77
2023-01-07T12:51:46.718Z,22.77
2023-01-07T12:54:19.361Z,18.83
2023-01-07T12:56:53.325Z,23.07
2023-01-07T12:59:45.812Z,18.70
2023-01-07T13:02:26.239Z,17.07
2023-01-07T13:05:05.640Z,17.97
2023-01-07T13:07:44.108Z,15.57
2023-01-07T13:10:17.678Z,14.97
2023-01-07T13:12:47.662Z,14.73
2023-01-07T13:15:26.943Z,16.33
2023-01-07T13:17:59.025Z,15.80
2023-01-07T13:20:49.842Z,15.20
2023-01-07T13:23:23.501Z,15.53
2023-01-07T13:26:17.951Z,15.50
2023-01-07T13:29:19.953Z,14.70
2023-01-07T13:32:15.579Z,16.37
2023-01-07T13:35:00.738Z,17.30
2023-01-07T13:37:51.809Z,17.33
2023-01-07T13:40:32.893Z,15.80
2023-01-07T13:43:11.075Z,16.30
2023-01-07T13:45:42.404Z,15.23
2023-01-07T13:48:21.752Z,16.67
2023-01-07T13:51:00.488Z,15.07
2023-01-07T13:53:47.006Z,15.77
2023-01-07T13:56:39.858Z,15.60
2023-01-07T13:59:29.976Z,16.50
2023-01-07T14:02:21.820Z,18.27
2023-01-07T14:04:52.825Z,19.20
2023-01-07T14:07:22.592Z,17.00
2023-01-07T14:09:55.859Z,17.53
2023-01-07T14:12:52.398Z,17.43
2023-01-07T14:16:06.203Z,19.83
2023-01-07T14:19:14.097Z,18.87
2023-01-07T14:22:00.634Z,19.97
2023-01-07T14:25:01.964Z,18.37
2023-01-07T14:27:54.638Z,17.00
2023-01-07T14:30:27.241Z,17.60
2023-01-07T14:33:01.460Z,19.60
2023-01-07T14:35:37.211Z,20.77
2023-01-07T14:38:39.469Z,20.53
2023-01-07T14:41:11.039Z,20.00
2023-01-07T14:44:10.304Z,20.23
2023-01-07T14:46:53.924Z,20.03
2023-01-07T14:49:53.750Z,20.60
2023-01-07T14:52:40.545Z,20.50
2023-01-07T14:55:35.497Z,18.77
2023-01-07T14:58:29.390Z,19.20
2023-01-07T15:01:31.416Z,20.07
2023-01-07T15:04:32.559Z,24.83
2023-01-07T15:07:02.291Z,21.67
2023-01-07T15:09:57.678Z,24.73
2023-01-07T15:12:47.806Z,26.67
2023-01-07T15:15:40.851Z,25.10
2023-01-07T15:18:10.230Z,26.50
2023-01-07T15:20:51.221Z,26.40
2023-01-07T15:23:25.833Z,26.70
2023-01-07T15:26:00.758Z,34.23
2023-01-07T15:28:39.109Z,43.40
2023-01-07T15:31:17.650Z,35.37
2023-01-07T15:34:02.314Z,30.47
2023-01-07T15:36:32.002Z,27.00
2023-01-07T15:39:04.139Z,25.03
2023-01-07T15:41:35.477Z,23.63
2023-01-07T15:44:06.738Z,24.80
2023-01-07T15:46:41.849Z,24.83
2023-01-07T15:49:27.952Z,22.80
2023-01-07T15:51:58.191Z,24.43
2023-01-07T15:54:32.441Z,23.00
2023-01-07T15:57:05.981Z,24.40
2023-01-07T15:59:37.192Z,30.63
2023-01-07T16:02:24.718Z,26.70
2023-01-07T16:04:55.177Z,25.07
2023-01-07T16:07:28.358Z,25.43
2023-01-07T16:09:58.471Z,27.90
2023-01-07T16:12:33.197Z,24.73
2023-01-07T16:15:04.555Z,23.67
2023-01-07T16:17:36.002Z,25.93
2023-01-07T16:20:12.128Z,26.83
2023-01-07T16:22:43.416Z,25.20
2023-01-07T16:25:17.772Z,26.90
2023-01-07T16:27:46.715Z,27.43
2023-01-07T16:30:16.523Z,26.37
2023-01-07T16:32:46.914Z,25.10
2023-01-07T16:35:23.274Z,25.07
2023-01-07T16:37:53.602Z,25.83
2023-01-07T16:40:35.239Z,25.83
2023-01-07T16:43:03.621Z,28.47
2023-01-07T16:45:33.663Z,29.93
2023-01-07T16:48:22.140Z,27.27
2023-01-07T16:50:51.204Z,26.03
2023-01-07T16:53:33.391Z,24.73
2023-01-07T16:56:14.840Z,24.97
2023-01-07T16:58:48.724Z,24.10
2023-01-07T17:01:21.418Z,25.03
2023-01-07T17:03:56.705Z,23.20
2023-01-07T17:06:27.704Z,25.83
2023-01-07T17:08:57.256Z,25.13
2023-01-07T17:11:32.101Z,24.43
2023-01-07T17:14:00.389Z,23.47
2023-01-07T17:16:33.563Z,25.30
2023-01-07T17:19:24.667Z,24.17
2023-01-07T17:21:53.508Z,25.23
2023-01-07T17:24:47.318Z,24.30
2023-01-07T17:27:29.003Z,21.33
2023-01-07T17:29:57.794Z,24.63
2023-01-07T17:32:26.189Z,25.70
2023-01-07T17:34:56.173Z,25.60
2023-01-07T17:37:24.640Z,25.17
2023-01-07T17:39:53.024Z,23.93
2023-01-07T17:42:41.272Z,25.80
2023-01-07T17:45:14.791Z,27.13
2023-01-07T17:47:43.232Z,27.93
2023-01-07T17:50:15.885Z,26.00
2023-01-07T17:52:46.830Z,29.40
2023-01-07T17:55:26.635Z,27.73
2023-01-07T17:57:55.261Z,31.63
2023-01-07T18:00:25.456Z,29.10
2023-01-07T18:02:54.321Z,27.33
2023-01-07T18:05:25.801Z,25.57
2023-01-07T18:07:54.940Z,27.93
2023-01-07T18:10:27.213Z,30.47
2023-01-07T18:12:54.633Z,28.70
2023-01-07T18:15:24.891Z,28.90
2023-01-07T18:17:53.568Z,29.27
2023-01-07T18:20:24.269Z,37.63
2023-01-07T18:22:52.680Z,32.27
2023-01-07T18:25:22.716Z,29.47
2023-01-07T18:27:53.342Z,31.67
2023-01-07T18:30:23.259Z,34.37
2023-01-07T18:32:53.836Z,33.77
2023-01-07T18:35:28.222Z,33.53
2023-01-07T18:37:58.102Z,33.17
2023-01-07T18:40:26.774Z,37.03
2023-01-07T18:42:55.590Z,33.63
2023-01-07T18:45:24.292Z,33.33
2023-01-07T18:47:52.603Z,35.50
2023-01-07T18:50:21.197Z,34.53
2023-01-07T18:52:49.560Z,38.07
2023-01-07T18:55:19.528Z,37.93
2023-01-07T18:57:48.006Z,33.53
2023-01-07T19:00:17.281Z,35.97
2023-01-07T19:02:45.570Z,34.10
2023-01-07T19:05:14.044Z,35.30
2023-01-07T19:07:43.502Z,32.73
2023-01-07T19:10:12.161Z,33.70
2023-01-07T19:12:41.871Z,35.63
2023-01-07T19:15:10.811Z,37.97
2023-01-07T19:17:39.165Z,38.20
2023-01-07T19:20:08.914Z,42.27
2023-01-07T19:22:37.472Z,42.93
2023-01-07T19:25:06.403Z,42.93
2023-01-07T19:27:34.780Z,42.80
2023-01-07T19:30:04.639Z,45.17
2023-01-07T19:32:32.993Z,49.97
2023-01-07T19:35:01.356Z,43.70
2023-01-07T19:37:29.741Z,37.30
2023-01-07T19:39:58.041Z,45.43
2023-01-07T19:42:26.410Z,43.27
2023-01-07T19:44:54.819Z,38.93
2023-01-07T19:47:24.428Z,45.57
2023-01-07T19:49:53.809Z,48.20
2023-01-07T19:52:22.207Z,54.33
2023-01-07T19:54:50.499Z,50.93
2023-01-07T19:57:18.914Z,68.87
2023-01-07T19:59:47.233Z,62.47
2023-01-07T20:02:15.829Z,80.50
2023-01-07T20:04:46.376Z,82.30
2023-01-07T20:07:14.934Z,79.20
2023-01-07T20:09:43.401Z,96.57
2023-01-07T20:12:11.776Z,77.63
2023-01-07T20:14:40.288Z,69.17
2023-01-07T20:17:08.996Z,72.20
2023-01-07T20:19:37.402Z,63.20
2023-01-07T20:22:07.141Z,50.60
2023-01-07T20:24:35.499Z,43.40
2023-01-07T20:27:03.900Z,40.20
2023-01-07T20:29:32.261Z,42.67
2023-01-07T20:32:00.699Z,40.80
2023-01-07T20:34:29.691Z,39.97
2023-01-07T20:36:58.032Z,42.10
2023-01-07T20:39:27.714Z,45.80
2023-01-07T20:41:56.111Z,43.20
2023-01-07T20:44:24.621Z,43.73
2023-01-07T20:46:52.912Z,40.80
2023-01-07T20:49:21.219Z,37.13
2023-01-07T20:51:49.571Z,42.70
2023-01-07T20:54:18.032Z,47.10
2023-01-07T20:56:47.574Z,48.53
2023-01-07T20:59:17.315Z,45.40
2023-01-07T21:01:45.974Z,43.60
2023-01-07T21:04:14.533Z,42.30
2023-01-07T21:06:43.119Z,41.37
2023-01-07T21:09:12.108Z,35.93
2023-01-07T21:11:40.746Z,37.80
2023-01-07T21:14:10.835Z,42.73
2023-01-07T21:16:39.311Z,39.33
2023-01-07T21:19:07.600Z,39.13
2023-01-07T21:21:35.922Z,37.47
2023-01-07T21:24:04.301Z,37.77
2023-01-07T21:26:32.731Z,44.33
2023-01-07T21:29:00.974Z,45.27
2023-01-07T21:31:30.723Z,45.50
2023-01-07T21:33:59.295Z,43.10
2023-01-07T21:36:29.362Z,43.57
2023-01-07T21:39:00.423Z,43.93
2023-01-07T21:41:29.697Z,45.37
2023-01-07T21:43:58.258Z,49.20
2023-01-07T21:46:26.800Z,44.23
2023-01-07T21:48:56.992Z,43.70
2023-01-07T21:51:27.823Z,44.90
2023-01-07T21:53:58.083Z,47.97
2023-01-07T21:56:28.624Z,41.53
2023-01-07T21:58:57.121Z,41.33
2023-01-07T22:01:28.863Z,41.60
2023-01-07T22:03:59.977Z,40.60
2023-01-07T22:06:30.903Z,40.93
2023-01-07T22:09:01.037Z,39.17
2023-01-07T22:11:29.931Z,37.67
2023-01-07T22:13:59.622Z,34.70
2023-01-07T22:16:29.608Z,35.17
2023-01-07T22:18:59.764Z,35.60
2023-01-07T22:21:28.428Z,35.50
2023-01-07T22:23:56.811Z,34.00
2023-01-07T22:26:25.688Z,33.47
2023-01-07T22:28:56.181Z,34.43
2023-01-07T22:31:26.381Z,33.30
2023-01-07T22:33:55.689Z,29.87
2023-01-07T22:36:30.246Z,32.07
2023-01-07T22:39:03.009Z,26.77
2023-01-07T22:41:32.954Z,29.87
2023-01-07T22:44:05.222Z,30.50
2023-01-07T22:46:35.405Z,30.17
2023-01-07T22:49:03.801Z,28.83
2023-01-07T22:51:38.729Z,27.77
2023-01-07T22:54:08.853Z,30.33
2023-01-07T22:56:37.280Z,31.60
2023-01-07T22:59:05.652Z,29.07
2023-01-07T23:01:34.518Z,31.30
2023-01-07T23:04:03.055Z,30.03
2023-01-07T23:06:31.493Z,29.50
2023-01-07T23:09:01.329Z,29.03
2023-01-07T23:11:47.144Z,31.00
2023-01-07T23:14:15.913Z,32.43
2023-01-07T23:16:44.355Z,30.50
2023-01-07T23:19:13.537Z,32.53
2023-01-07T23:21:44.229Z,31.10
2023-01-07T23:24:14.680Z,30.60
2023-01-07T23:26:43.881Z,33.67
2023-01-07T23:29:12.192Z,35.63
2023-01-07T23:31:40.714Z,37.40
2023-01-07T23:34:09.503Z,33.27
2023-01-07T23:36:38.255Z,34.83
2023-01-07T23:39:07.072Z,32.33
2023-01-07T23:41:37.041Z,34.33
2023-01-07T23:44:05.703Z,37.73
2023-01-07T23:46:34.648Z,34.13
2023-01-07T23:49:03.076Z,36.97
2023-01-07T23:51:31.430Z,37.90
2023-01-07T23:53:59.811Z,37.13
2023-01-07T23:56:28.241Z,34.27
2023-01-07T23:58:57.892Z,37.97
